sensor_id;sensor_type;location;lat;lon;timestamp;temperature;humidity
65995;HTU21D;52764;51.036;5.852;2024-02-16T00:00:12;15.36;63.76
65995;HTU21D;52764;51.036;5.852;2024-02-16T00:02:40;15.34;63.62
65995;HTU21D;52764;51.036;5.852;2024-02-16T00:05:10;15.30;63.55
65995;HTU21D;52764;51.036;5.852;2024-02-16T00:07:39;15.28;63.73
65995;HTU21D;52764;51.036;5.852;2024-02-16T00:10:06;15.31;63.76
65995;HTU21D;52764;51.036;5.852;2024-02-16T00:12:33;-10.34;63.81
65995;HTU21D;52764;51.036;5.852;2024-02-16T00:15:01;15.38;63.74
65995;HTU21D;52764;51.036;5.852;2024-02-16T00:17:27;15.42;63.45
65995;HTU21D;52764;51.036;5.852;2024-02-16T00:19:54;15.46;63.96
65995;HTU21D;52764;51.036;5.852;2024-02-16T00:22:20;15.46;63.63
65995;HTU21D;52764;51.036;5.852;2024-02-16T00:24:46;15.48;63.55
65995;HTU21D;52764;51.036;5.852;2024-02-16T00:27:12;15.53;63.41
65995;HTU21D;52764;51.036;5.852;2024-02-16T00:29:40;15.58;63.23
65995;HTU21D;52764;51.036;5.852;2024-02-16T00:32:06;15.60;63.25
65995;HTU21D;52764;51.036;5.852;2024-02-16T00:34:40;15.62;63.25
65995;HTU21D;52764;51.036;5.852;2024-02-16T00:37:07;15.67;63.02
65995;HTU21D;52764;51.036;5.852;2024-02-16T00:39:40;15.67;62.76
65995;HTU21D;52764;51.036;5.852;2024-02-16T00:42:06;15.66;62.74
65995;HTU21D;52764;51.036;5.852;2024-02-16T00:44:32;15.68;62.95
65995;HTU21D;52764;51.036;5.852;2024-02-16T00:46:58;15.69;62.92
65995;HTU21D;52764;51.036;5.852;2024-02-16T00:49:23;15.90;62.73
65995;HTU21D;52764;51.036;5.852;2024-02-16T00:51:49;15.73;62.52
65995;HTU21D;52764;51.036;5.852;2024-02-16T00:54:16;15.73;60.70
65995;HTU21D;52764;51.036;5.852;2024-02-16T00:56:43;15.74;68.36
65995;HTU21D;52764;51.036;5.852;2024-02-16T00:59:08;15.72;62.32
65995;HTU21D;52764;51.036;5.852;2024-02-16T01:01:38;15.75;62.34
65995;HTU21D;52764;51.036;5.852;2024-02-16T01:04:04;15.78;63.25
65995;HTU21D;52764;51.036;5.852;2024-02-16T01:06:29;15.80;62.84
65995;HTU21D;52764;51.036;5.852;2024-02-16T01:08:55;15.77;63.15
65995;HTU21D;52764;51.036;5.852;2024-02-16T01:11:22;15.78;63.34
65995;HTU21D;52764;51.036;5.852;2024-02-16T01:13:48;15.80;63.25
65995;HTU21D;52764;51.036;5.852;2024-02-16T01:16:14;15.81;63.67
65995;HTU21D;52764;51.036;5.852;2024-02-16T01:18:39;15.83;63.74
65995;HTU21D;52764;51.036;5.852;2024-02-16T01:21:05;15.84;63.97
65995;HTU21D;52764;51.036;5.852;2024-02-16T01:23:31;15.85;64.14
65995;HTU21D;52764;51.036;5.852;2024-02-16T01:25:58;15.86;64.40
65995;HTU21D;52764;51.036;5.852;2024-02-16T01:28:23;15.83;64.14
65995;HTU21D;52764;51.036;5.852;2024-02-16T01:30:50;15.82;64.04
65995;HTU21D;52764;51.036;5.852;2024-02-16T01:33:16;15.78;64.00
65995;HTU21D;52764;51.036;5.852;2024-02-16T01:35:41;15.76;64.19
65995;HTU21D;52764;51.036;5.852;2024-02-16T01:38:07;15.75;64.47
65995;HTU21D;52764;51.036;5.852;2024-02-16T01:40:33;15.76;64.46
65995;HTU21D;52764;51.036;5.852;2024-02-16T01:42:59;15.78;64.22
65995;HTU21D;52764;51.036;5.852;2024-02-16T01:45:24;15.73;64.07
65995;HTU21D;52764;51.036;5.852;2024-02-16T01:47:52;15.70;63.66
65995;HTU21D;52764;51.036;5.852;2024-02-16T01:50:19;15.65;63.97
65995;HTU21D;52764;51.036;5.852;2024-02-16T01:52:46;15.60;63.91
65995;HTU21D;52764;51.036;5.852;2024-02-16T01:55:13;15.55;64.10
65995;HTU21D;52764;51.036;5.852;2024-02-16T01:57:40;15.53;64.28
65995;HTU21D;52764;51.036;5.852;2024-02-16T02:00:08;15.53;64.43
65995;HTU21D;52764;51.036;5.852;2024-02-16T02:02:35;15.55;64.46
65995;HTU21D;52764;51.036;5.852;2024-02-16T02:05:01;15.54;64.53
65995;HTU21D;52764;51.036;5.852;2024-02-16T02:07:27;15.55;64.37
65995;HTU21D;52764;51.036;5.852;2024-02-16T02:09:54;15.55;64.34
65995;HTU21D;52764;51.036;5.852;2024-02-16T02:12:20;15.55;65.11
65995;HTU21D;52764;51.036;5.852;2024-02-16T02:14:46;15.53;64.54
65995;HTU21D;52764;51.036;5.852;2024-02-16T02:17:12;15.53;64.96
65995;HTU21D;52764;51.036;5.852;2024-02-16T02:19:38;15.53;65.06
65995;HTU21D;52764;51.036;5.852;2024-02-16T02:22:08;15.48;64.73
65995;HTU21D;52764;51.036;5.852;2024-02-16T02:24:34;15.44;64.63
65995;HTU21D;52764;51.036;5.852;2024-02-16T02:27:00;15.46;64.91
65995;HTU21D;52764;51.036;5.852;2024-02-16T02:29:25;15.45;64.87
65995;HTU21D;52764;51.036;5.852;2024-02-16T02:31:51;15.46;64.94
65995;HTU21D;52764;51.036;5.852;2024-02-16T02:34:17;15.45;64.86
65995;HTU21D;52764;51.036;5.852;2024-02-16T02:36:43;15.48;64.69
65995;HTU21D;52764;51.036;5.852;2024-02-16T02:39:09;15.48;64.62
65995;HTU21D;52764;51.036;5.852;2024-02-16T02:41:36;15.49;64.52
65995;HTU21D;52764;51.036;5.852;2024-02-16T02:44:01;14.78;65.17
65995;HTU21D;52764;51.036;5.852;2024-02-16T02:46:27;15.57;64.62
65995;HTU21D;52764;51.036;5.852;2024-02-16T02:48:53;15.61;64.66
65995;HTU21D;52764;51.036;5.852;2024-02-16T02:51:18;15.66;57.50
65995;HTU21D;52764;51.036;5.852;2024-02-16T02:53:44;15.69;64.54
65995;HTU21D;52764;51.036;5.852;2024-02-16T02:56:10;15.73;64.43
65995;HTU21D;52764;51.036;5.852;2024-02-16T02:58:39;15.75;64.35
65995;HTU21D;52764;51.036;5.852;2024-02-16T03:01:04;15.78;64.28
65995;HTU21D;52764;51.036;5.852;2024-02-16T03:03:33;15.78;64.18
65995;HTU21D;52764;51.036;5.852;2024-02-16T03:05:59;15.80;64.10
65995;HTU21D;52764;51.036;5.852;2024-02-16T03:08:25;15.80;64.04
65995;HTU21D;52764;51.036;5.852;2024-02-16T03:10:51;15.82;64.11
65995;HTU21D;52764;51.036;5.852;2024-02-16T03:13:17;15.88;64.27
65995;HTU21D;52764;51.036;5.852;2024-02-16T03:15:46;15.84;64.59
65995;HTU21D;52764;51.036;5.852;2024-02-16T03:18:11;15.78;64.59
65995;HTU21D;52764;51.036;5.852;2024-02-16T03:20:37;15.80;64.51
65995;HTU21D;52764;51.036;5.852;2024-02-16T03:23:04;15.76;64.80
65995;HTU21D;52764;51.036;5.852;2024-02-16T03:25:30;15.76;64.87
65995;HTU21D;52764;51.036;5.852;2024-02-16T03:27:56;15.77;65.04
65995;HTU21D;52764;51.036;5.852;2024-02-16T03:30:22;15.76;64.91
65995;HTU21D;52764;51.036;5.852;2024-02-16T03:32:51;15.75;64.85
65995;HTU21D;52764;51.036;5.852;2024-02-16T03:35:20;15.74;65.11
65995;HTU21D;52764;51.036;5.852;2024-02-16T03:37:46;15.74;65.14
65995;HTU21D;52764;51.036;5.852;2024-02-16T03:40:12;15.76;65.10
65995;HTU21D;52764;51.036;5.852;2024-02-16T03:42:39;15.80;65.02
65995;HTU21D;52764;51.036;5.852;2024-02-16T03:45:06;15.82;65.00
65995;HTU21D;52764;51.036;5.852;2024-02-16T03:47:33;15.81;65.11
65995;HTU21D;52764;51.036;5.852;2024-02-16T03:49:58;15.82;65.07
65995;HTU21D;52764;51.036;5.852;2024-02-16T03:52:24;12.59;65.19
65995;HTU21D;52764;51.036;5.852;2024-02-16T03:54:50;15.81;65.33
65995;HTU21D;52764;51.036;5.852;2024-02-16T03:57:17;15.84;65.50
65995;HTU21D;52764;51.036;5.852;2024-02-16T03:59:43;15.82;65.31
65995;HTU21D;52764;51.036;5.852;2024-02-16T04:02:09;15.84;65.40
65995;HTU21D;52764;51.036;5.852;2024-02-16T04:04:35;15.84;65.33
65995;HTU21D;52764;51.036;5.852;2024-02-16T04:07:02;15.83;65.41
65995;HTU21D;52764;51.036;5.852;2024-02-16T04:09:27;15.87;64.53
65995;HTU21D;52764;51.036;5.852;2024-02-16T04:11:53;12.63;65.63
65995;HTU21D;52764;51.036;5.852;2024-02-16T04:14:19;15.83;65.63
65995;HTU21D;52764;51.036;5.852;2024-02-16T04:16:44;15.80;65.77
65995;HTU21D;52764;51.036;5.852;2024-02-16T04:19:10;15.77;65.79
65995;HTU21D;52764;51.036;5.852;2024-02-16T04:21:36;15.75;65.90
65995;HTU21D;52764;51.036;5.852;2024-02-16T04:24:02;15.72;65.95
65995;HTU21D;52764;51.036;5.852;2024-02-16T04:26:28;15.71;65.95
65995;HTU21D;52764;51.036;5.852;2024-02-16T04:28:54;15.71;66.06
65995;HTU21D;52764;51.036;5.852;2024-02-16T04:31:20;15.70;66.09
65995;HTU21D;52764;51.036;5.852;2024-02-16T04:33:45;15.73;66.05
65995;HTU21D;52764;51.036;5.852;2024-02-16T04:36:11;15.75;65.92
65995;HTU21D;52764;51.036;5.852;2024-02-16T04:38:37;15.77;65.83
65995;HTU21D;52764;51.036;5.852;2024-02-16T04:41:05;15.78;65.91
65995;HTU21D;52764;51.036;5.852;2024-02-16T04:43:31;15.83;65.80
65995;HTU21D;52764;51.036;5.852;2024-02-16T04:45:57;15.86;65.87
65995;HTU21D;52764;51.036;5.852;2024-02-16T04:48:22;15.86;65.94
65995;HTU21D;52764;51.036;5.852;2024-02-16T04:50:48;15.89;65.82
65995;HTU21D;52764;51.036;5.852;2024-02-16T04:53:14;15.91;65.73
65995;HTU21D;52764;51.036;5.852;2024-02-16T04:55:40;15.95;65.66
65995;HTU21D;52764;51.036;5.852;2024-02-16T04:58:05;15.95;65.69
65995;HTU21D;52764;51.036;5.852;2024-02-16T05:00:38;15.97;65.53
65995;HTU21D;52764;51.036;5.852;2024-02-16T05:03:04;15.93;65.70
65995;HTU21D;52764;51.036;5.852;2024-02-16T05:05:30;16.00;65.46
65995;HTU21D;52764;51.036;5.852;2024-02-16T05:07:59;16.02;65.37
65995;HTU21D;52764;51.036;5.852;2024-02-16T05:10:25;16.05;66.44
65995;HTU21D;52764;51.036;5.852;2024-02-16T05:12:50;16.06;66.59
65995;HTU21D;52764;51.036;5.852;2024-02-16T05:15:16;16.07;65.44
65995;HTU21D;52764;51.036;5.852;2024-02-16T05:17:42;16.06;65.57
65995;HTU21D;52764;51.036;5.852;2024-02-16T05:20:12;16.08;65.53
65995;HTU21D;52764;51.036;5.852;2024-02-16T05:22:45;16.06;64.66
65995;HTU21D;52764;51.036;5.852;2024-02-16T05:25:29;16.11;65.29
65995;HTU21D;52764;51.036;5.852;2024-02-16T05:27:55;16.15;65.29
65995;HTU21D;52764;51.036;5.852;2024-02-16T05:30:21;16.14;65.31
65995;HTU21D;52764;51.036;5.852;2024-02-16T05:32:46;16.16;65.28
65995;HTU21D;52764;51.036;5.852;2024-02-16T05:35:13;16.15;65.29
65995;HTU21D;52764;51.036;5.852;2024-02-16T05:37:47;16.17;65.28
65995;HTU21D;52764;51.036;5.852;2024-02-16T05:40:19;16.15;65.33
65995;HTU21D;52764;51.036;5.852;2024-02-16T05:42:51;16.15;65.32
65995;HTU21D;52764;51.036;5.852;2024-02-16T05:45:17;16.17;65.31
65995;HTU21D;52764;51.036;5.852;2024-02-16T05:47:44;16.19;65.37
65995;HTU21D;52764;51.036;5.852;2024-02-16T05:50:14;16.19;65.46
65995;HTU21D;52764;51.036;5.852;2024-02-16T05:52:43;16.18;65.39
65995;HTU21D;52764;51.036;5.852;2024-02-16T05:55:10;16.19;65.33
65995;HTU21D;52764;51.036;5.852;2024-02-16T05:57:37;16.17;65.59
65995;HTU21D;52764;51.036;5.852;2024-02-16T06:00:04;16.22;65.89
65995;HTU21D;52764;51.036;5.852;2024-02-16T06:02:32;16.25;66.21
65995;HTU21D;52764;51.036;5.852;2024-02-16T06:04:58;16.22;66.72
65995;HTU21D;52764;51.036;5.852;2024-02-16T06:07:24;16.20;66.90
65995;HTU21D;52764;51.036;5.852;2024-02-16T06:09:50;16.15;67.41
65995;HTU21D;52764;51.036;5.852;2024-02-16T06:12:15;16.11;67.65
65995;HTU21D;52764;51.036;5.852;2024-02-16T06:14:42;16.03;67.67
65995;HTU21D;52764;51.036;5.852;2024-02-16T06:17:08;16.00;67.74
65995;HTU21D;52764;51.036;5.852;2024-02-16T06:19:37;15.97;67.81
65995;HTU21D;52764;51.036;5.852;2024-02-16T06:22:03;15.92;67.94
65995;HTU21D;52764;51.036;5.852;2024-02-16T06:24:29;15.57;67.88
65995;HTU21D;52764;51.036;5.852;2024-02-16T06:26:55;15.97;67.81
65995;HTU21D;52764;51.036;5.852;2024-02-16T06:29:20;15.93;67.75
65995;HTU21D;52764;51.036;5.852;2024-02-16T06:31:46;15.89;67.86
65995;HTU21D;52764;51.036;5.852;2024-02-16T06:34:15;15.84;67.99
65995;HTU21D;52764;51.036;5.852;2024-02-16T06:36:42;15.81;67.95
65995;HTU21D;52764;51.036;5.852;2024-02-16T06:39:08;15.81;68.00
65995;HTU21D;52764;51.036;5.852;2024-02-16T06:41:35;15.77;68.02
65995;HTU21D;52764;51.036;5.852;2024-02-16T06:44:01;15.77;68.14
65995;HTU21D;52764;51.036;5.852;2024-02-16T06:46:26;15.83;67.96
65995;HTU21D;52764;51.036;5.852;2024-02-16T06:48:55;15.87;67.82
65995;HTU21D;52764;51.036;5.852;2024-02-16T06:51:23;15.89;67.84
65995;HTU21D;52764;51.036;5.852;2024-02-16T06:53:49;15.91;67.77
65995;HTU21D;52764;51.036;5.852;2024-02-16T06:56:15;15.95;67.66
65995;HTU21D;52764;51.036;5.852;2024-02-16T06:58:40;15.98;67.53
65995;HTU21D;52764;51.036;5.852;2024-02-16T07:01:07;15.98;67.41
65995;HTU21D;52764;51.036;5.852;2024-02-16T07:03:34;16.02;67.31
65995;HTU21D;52764;51.036;5.852;2024-02-16T07:06:03;16.05;67.24
65995;HTU21D;52764;51.036;5.852;2024-02-16T07:08:29;16.07;67.27
65995;HTU21D;52764;51.036;5.852;2024-02-16T07:10:55;16.10;67.30
65995;HTU21D;52764;51.036;5.852;2024-02-16T07:13:22;16.11;67.30
65995;HTU21D;52764;51.036;5.852;2024-02-16T07:15:48;16.14;67.13
65995;HTU21D;52764;51.036;5.852;2024-02-16T07:18:15;16.14;67.25
65995;HTU21D;52764;51.036;5.852;2024-02-16T07:20:41;16.14;67.18
65995;HTU21D;52764;51.036;5.852;2024-02-16T07:23:07;16.15;67.08
65995;HTU21D;52764;51.036;5.852;2024-02-16T07:25:35;16.18;67.17
65995;HTU21D;52764;51.036;5.852;2024-02-16T07:28:01;16.19;67.17
65995;HTU21D;52764;51.036;5.852;2024-02-16T07:30:27;16.21;67.33
65995;HTU21D;52764;51.036;5.852;2024-02-16T07:32:53;16.22;67.11
65995;HTU21D;52764;51.036;5.852;2024-02-16T07:35:19;16.25;67.10
65995;HTU21D;52764;51.036;5.852;2024-02-16T07:37:44;16.26;67.04
65995;HTU21D;52764;51.036;5.852;2024-02-16T07:40:10;16.30;67.06
65995;HTU21D;52764;51.036;5.852;2024-02-16T07:42:39;16.34;67.06
65995;HTU21D;52764;51.036;5.852;2024-02-16T07:45:06;16.40;66.94
65995;HTU21D;52764;51.036;5.852;2024-02-16T07:47:32;16.43;66.94
65995;HTU21D;52764;51.036;5.852;2024-02-16T07:49:58;16.48;65.24
65995;HTU21D;52764;51.036;5.852;2024-02-16T07:52:23;16.54;66.72
65995;HTU21D;52764;51.036;5.852;2024-02-16T07:54:49;16.56;66.70
65995;HTU21D;52764;51.036;5.852;2024-02-16T07:57:17;16.59;66.46
65995;HTU21D;52764;51.036;5.852;2024-02-16T07:59:43;16.60;66.40
65995;HTU21D;52764;51.036;5.852;2024-02-16T08:02:09;16.60;66.40
65995;HTU21D;52764;51.036;5.852;2024-02-16T08:04:35;16.59;66.23
65995;HTU21D;52764;51.036;5.852;2024-02-16T08:07:01;16.59;66.31
65995;HTU21D;52764;51.036;5.852;2024-02-16T08:09:27;16.56;66.52
65995;HTU21D;52764;51.036;5.852;2024-02-16T08:11:53;16.58;66.57
65995;HTU21D;52764;51.036;5.852;2024-02-16T08:14:19;16.58;66.59
65995;HTU21D;52764;51.036;5.852;2024-02-16T08:16:45;16.57;66.56
65995;HTU21D;52764;51.036;5.852;2024-02-16T08:19:11;16.58;66.62
65995;HTU21D;52764;51.036;5.852;2024-02-16T08:21:39;16.58;66.69
65995;HTU21D;52764;51.036;5.852;2024-02-16T08:24:06;16.59;67.18
65995;HTU21D;52764;51.036;5.852;2024-02-16T08:26:32;16.64;67.30
65995;HTU21D;52764;51.036;5.852;2024-02-16T08:28:58;16.73;67.10
65995;HTU21D;52764;51.036;5.852;2024-02-16T08:31:25;16.82;66.86
65995;HTU21D;52764;51.036;5.852;2024-02-16T08:33:50;14.65;66.73
65995;HTU21D;52764;51.036;5.852;2024-02-16T08:36:16;16.92;66.47
65995;HTU21D;52764;51.036;5.852;2024-02-16T08:38:42;16.94;66.33
65995;HTU21D;52764;51.036;5.852;2024-02-16T08:41:07;16.98;66.31
65995;HTU21D;52764;51.036;5.852;2024-02-16T08:43:33;16.99;66.40
65995;HTU21D;52764;51.036;5.852;2024-02-16T08:45:59;17.01;66.64
65995;HTU21D;52764;51.036;5.852;2024-02-16T08:48:25;17.07;66.53
65995;HTU21D;52764;51.036;5.852;2024-02-16T08:50:51;17.07;66.41
65995;HTU21D;52764;51.036;5.852;2024-02-16T08:53:17;17.13;66.40
65995;HTU21D;52764;51.036;5.852;2024-02-16T08:55:42;17.16;66.15
65995;HTU21D;52764;51.036;5.852;2024-02-16T08:58:08;17.19;66.09
65995;HTU21D;52764;51.036;5.852;2024-02-16T09:00:34;17.23;66.11
65995;HTU21D;52764;51.036;5.852;2024-02-16T09:03:00;16.90;59.76
65995;HTU21D;52764;51.036;5.852;2024-02-16T09:05:31;17.31;65.68
65995;HTU21D;52764;51.036;5.852;2024-02-16T09:07:57;17.34;65.67
65995;HTU21D;52764;51.036;5.852;2024-02-16T09:10:23;17.36;74.86
65995;HTU21D;52764;51.036;5.852;2024-02-16T09:12:49;17.35;65.71
65995;HTU21D;52764;51.036;5.852;2024-02-16T09:15:17;17.48;65.47
65995;HTU21D;52764;51.036;5.852;2024-02-16T09:17:43;17.49;65.47
65995;HTU21D;52764;51.036;5.852;2024-02-16T09:20:10;17.50;65.53
65995;HTU21D;52764;51.036;5.852;2024-02-16T09:22:38;17.48;65.64
65995;HTU21D;52764;51.036;5.852;2024-02-16T09:25:04;17.47;65.76
65995;HTU21D;52764;51.036;5.852;2024-02-16T09:27:30;17.44;65.93
65995;HTU21D;52764;51.036;5.852;2024-02-16T09:29:57;17.46;65.98
65995;HTU21D;52764;51.036;5.852;2024-02-16T09:32:22;17.51;65.98
65995;HTU21D;52764;51.036;5.852;2024-02-16T09:34:48;17.54;65.94
65995;HTU21D;52764;51.036;5.852;2024-02-16T09:37:14;17.54;65.89
65995;HTU21D;52764;51.036;5.852;2024-02-16T09:39:41;17.58;66.04
65995;HTU21D;52764;51.036;5.852;2024-02-16T09:42:06;17.64;65.98
65995;HTU21D;52764;51.036;5.852;2024-02-16T09:44:35;17.68;66.00
65995;HTU21D;52764;51.036;5.852;2024-02-16T09:47:02;17.72;65.80
65995;HTU21D;52764;51.036;5.852;2024-02-16T09:49:29;17.77;65.76
65995;HTU21D;52764;51.036;5.852;2024-02-16T09:51:59;17.82;65.82
65995;HTU21D;52764;51.036;5.852;2024-02-16T09:54:27;17.87;65.77
65995;HTU21D;52764;51.036;5.852;2024-02-16T09:56:56;17.89;65.77
65995;HTU21D;52764;51.036;5.852;2024-02-16T09:59:22;17.90;65.72
65995;HTU21D;52764;51.036;5.852;2024-02-16T10:01:48;17.93;67.32
65995;HTU21D;52764;51.036;5.852;2024-02-16T10:04:14;17.95;65.85
65995;HTU21D;52764;51.036;5.852;2024-02-16T10:06:49;17.99;65.68
65995;HTU21D;52764;51.036;5.852;2024-02-16T10:09:25;18.00;65.56
65995;HTU21D;52764;51.036;5.852;2024-02-16T10:11:51;18.00;65.56
65995;HTU21D;52764;51.036;5.852;2024-02-16T10:14:17;17.98;65.56
65995;HTU21D;52764;51.036;5.852;2024-02-16T10:16:58;17.94;65.63
65995;HTU21D;52764;51.036;5.852;2024-02-16T10:19:24;17.92;65.87
65995;HTU21D;52764;51.036;5.852;2024-02-16T10:21:50;17.96;65.87
65995;HTU21D;52764;51.036;5.852;2024-02-16T10:24:21;17.98;65.86
65995;HTU21D;52764;51.036;5.852;2024-02-16T10:26:47;18.03;65.86
65995;HTU21D;52764;51.036;5.852;2024-02-16T10:29:17;17.98;65.91
65995;HTU21D;52764;51.036;5.852;2024-02-16T10:31:45;17.96;66.02
65995;HTU21D;52764;51.036;5.852;2024-02-16T10:34:11;17.95;66.27
65995;HTU21D;52764;51.036;5.852;2024-02-16T10:36:39;17.93;66.77
65995;HTU21D;52764;51.036;5.852;2024-02-16T10:39:06;17.89;67.08
65995;HTU21D;52764;51.036;5.852;2024-02-16T10:41:35;17.90;67.32
65995;HTU21D;52764;51.036;5.852;2024-02-16T10:44:03;17.92;67.30
65995;HTU21D;52764;51.036;5.852;2024-02-16T10:46:30;17.93;67.36
65995;HTU21D;52764;51.036;5.852;2024-02-16T10:48:56;17.92;67.24
65995;HTU21D;52764;51.036;5.852;2024-02-16T10:51:30;17.92;67.27
65995;HTU21D;52764;51.036;5.852;2024-02-16T10:54:00;17.93;67.10
65995;HTU21D;52764;51.036;5.852;2024-02-16T10:56:28;17.88;67.16
65995;HTU21D;52764;51.036;5.852;2024-02-16T10:59:00;17.83;67.46
65995;HTU21D;52764;51.036;5.852;2024-02-16T11:01:26;17.83;67.68
65995;HTU21D;52764;51.036;5.852;2024-02-16T11:04:00;17.83;67.78
65995;HTU21D;52764;51.036;5.852;2024-02-16T11:06:27;17.83;67.91
65995;HTU21D;52764;51.036;5.852;2024-02-16T11:08:53;17.83;67.97
65995;HTU21D;52764;51.036;5.852;2024-02-16T11:11:25;17.78;68.05
65995;HTU21D;52764;51.036;5.852;2024-02-16T11:13:54;-5.39;68.21
65995;HTU21D;52764;51.036;5.852;2024-02-16T11:16:21;17.79;68.10
65995;HTU21D;52764;51.036;5.852;2024-02-16T11:18:48;17.76;68.30
65995;HTU21D;52764;51.036;5.852;2024-02-16T11:21:15;17.77;68.33
65995;HTU21D;52764;51.036;5.852;2024-02-16T11:23:42;17.75;68.42
65995;HTU21D;52764;51.036;5.852;2024-02-16T11:26:10;17.72;68.53
65995;HTU21D;52764;51.036;5.852;2024-02-16T11:28:38;17.67;68.75
65995;HTU21D;52764;51.036;5.852;2024-02-16T11:31:04;17.56;69.13
65995;HTU21D;52764;51.036;5.852;2024-02-16T11:33:30;17.46;69.52
65995;HTU21D;52764;51.036;5.852;2024-02-16T11:35:58;17.36;69.89
65995;HTU21D;52764;51.036;5.852;2024-02-16T11:38:25;17.33;70.25
65995;HTU21D;52764;51.036;5.852;2024-02-16T11:43:24;17.23;70.87
65995;HTU21D;52764;51.036;5.852;2024-02-16T11:45:51;17.25;70.88
65995;HTU21D;52764;51.036;5.852;2024-02-16T11:48:24;17.24;71.09
65995;HTU21D;52764;51.036;5.852;2024-02-16T11:51:02;17.16;71.15
65995;HTU21D;52764;51.036;5.852;2024-02-16T11:53:28;17.26;71.26
65995;HTU21D;52764;51.036;5.852;2024-02-16T11:55:54;17.18;71.50
65995;HTU21D;52764;51.036;5.852;2024-02-16T11:58:21;17.16;71.71
65995;HTU21D;52764;51.036;5.852;2024-02-16T12:00:48;17.10;71.97
65995;HTU21D;52764;51.036;5.852;2024-02-16T12:03:21;17.08;72.18
65995;HTU21D;52764;51.036;5.852;2024-02-16T12:05:55;17.09;72.22
65995;HTU21D;52764;51.036;5.852;2024-02-16T12:08:22;17.07;72.23
65995;HTU21D;52764;51.036;5.852;2024-02-16T12:10:50;17.02;72.54
65995;HTU21D;52764;51.036;5.852;2024-02-16T12:13:17;17.01;72.70
65995;HTU21D;52764;51.036;5.852;2024-02-16T12:15:50;17.04;73.08
65995;HTU21D;52764;51.036;5.852;2024-02-16T12:18:21;17.02;72.81
65995;HTU21D;52764;51.036;5.852;2024-02-16T12:20:59;16.93;73.15
65995;HTU21D;52764;51.036;5.852;2024-02-16T12:23:25;16.79;73.74
65995;HTU21D;52764;51.036;5.852;2024-02-16T12:25:51;16.63;74.61
65995;HTU21D;52764;51.036;5.852;2024-02-16T12:28:16;16.52;75.34
65995;HTU21D;52764;51.036;5.852;2024-02-16T12:30:42;16.43;75.92
65995;HTU21D;52764;51.036;5.852;2024-02-16T12:33:08;16.40;76.32
65995;HTU21D;52764;51.036;5.852;2024-02-16T12:35:34;16.36;76.59
65995;HTU21D;52764;51.036;5.852;2024-02-16T12:38:00;16.36;76.50
65995;HTU21D;52764;51.036;5.852;2024-02-16T12:40:26;16.31;76.99
65995;HTU21D;52764;51.036;5.852;2024-02-16T12:42:52;16.29;77.39
65995;HTU21D;52764;51.036;5.852;2024-02-16T12:45:18;16.24;77.72
65995;HTU21D;52764;51.036;5.852;2024-02-16T12:47:44;16.18;78.08
65995;HTU21D;52764;51.036;5.852;2024-02-16T12:50:10;16.12;78.65
65995;HTU21D;52764;51.036;5.852;2024-02-16T12:52:36;16.02;79.10
65995;HTU21D;52764;51.036;5.852;2024-02-16T12:55:06;16.00;79.61
65995;HTU21D;52764;51.036;5.852;2024-02-16T12:57:32;15.99;79.98
65995;HTU21D;52764;51.036;5.852;2024-02-16T12:59:58;15.99;80.12
65995;HTU21D;52764;51.036;5.852;2024-02-16T13:02:24;16.04;80.20
65995;HTU21D;52764;51.036;5.852;2024-02-16T13:04:50;16.08;80.04
65995;HTU21D;52764;51.036;5.852;2024-02-16T13:07:15;16.12;80.07
65995;HTU21D;52764;51.036;5.852;2024-02-16T13:09:41;16.18;79.95
65995;HTU21D;52764;51.036;5.852;2024-02-16T13:12:07;16.18;80.04
65995;HTU21D;52764;51.036;5.852;2024-02-16T13:14:33;16.20;80.07
65995;HTU21D;52764;51.036;5.852;2024-02-16T13:16:59;16.18;80.40
65995;HTU21D;52764;51.036;5.852;2024-02-16T13:19:25;16.18;80.56
65995;HTU21D;52764;51.036;5.852;2024-02-16T13:21:50;16.14;80.80
65995;HTU21D;52764;51.036;5.852;2024-02-16T13:24:16;16.07;81.16
65995;HTU21D;52764;51.036;5.852;2024-02-16T13:26:42;16.06;81.46
65995;HTU21D;52764;51.036;5.852;2024-02-16T13:29:07;16.02;81.66
65995;HTU21D;52764;51.036;5.852;2024-02-16T13:31:33;15.99;81.84
65995;HTU21D;52764;51.036;5.852;2024-02-16T13:33:59;15.99;82.01
65995;HTU21D;52764;51.036;5.852;2024-02-16T13:36:26;15.98;82.33
65995;HTU21D;52764;51.036;5.852;2024-02-16T13:38:52;15.96;82.56
65995;HTU21D;52764;51.036;5.852;2024-02-16T13:41:18;15.96;82.60
65995;HTU21D;52764;51.036;5.852;2024-02-16T13:43:45;15.99;82.57
65995;HTU21D;52764;51.036;5.852;2024-02-16T13:46:10;16.00;82.48
65995;HTU21D;52764;51.036;5.852;2024-02-16T13:48:36;15.97;82.67
65995;HTU21D;52764;51.036;5.852;2024-02-16T13:51:03;12.93;82.59
65995;HTU21D;52764;51.036;5.852;2024-02-16T13:53:31;16.02;82.45
65995;HTU21D;52764;51.036;5.852;2024-02-16T13:55:56;15.98;82.38
65995;HTU21D;52764;51.036;5.852;2024-02-16T13:58:26;15.99;82.52
65995;HTU21D;52764;51.036;5.852;2024-02-16T14:00:53;16.00;82.36
65995;HTU21D;52764;51.036;5.852;2024-02-16T14:03:18;15.97;82.39
65995;HTU21D;52764;51.036;5.852;2024-02-16T14:05:46;15.95;82.32
65995;HTU21D;52764;51.036;5.852;2024-02-16T14:08:12;15.96;82.46
65995;HTU21D;52764;51.036;5.852;2024-02-16T14:10:40;15.98;82.52
65995;HTU21D;52764;51.036;5.852;2024-02-16T14:13:06;15.96;82.75
65995;HTU21D;52764;51.036;5.852;2024-02-16T14:15:32;15.99;82.76
65995;HTU21D;52764;51.036;5.852;2024-02-16T14:17:57;16.02;82.68
65995;HTU21D;52764;51.036;5.852;2024-02-16T14:20:24;16.05;82.53
65995;HTU21D;52764;51.036;5.852;2024-02-16T14:22:49;16.02;82.60
65995;HTU21D;52764;51.036;5.852;2024-02-16T14:25:15;16.02;82.66
65995;HTU21D;52764;51.036;5.852;2024-02-16T14:27:41;15.96;82.74
65995;HTU21D;52764;51.036;5.852;2024-02-16T14:30:08;15.96;82.62
65995;HTU21D;52764;51.036;5.852;2024-02-16T14:32:33;15.95;82.60
65995;HTU21D;52764;51.036;5.852;2024-02-16T14:35:00;15.92;82.65
65995;HTU21D;52764;51.036;5.852;2024-02-16T14:37:26;15.85;82.94
65995;HTU21D;52764;51.036;5.852;2024-02-16T14:39:54;15.84;82.97
65995;HTU21D;52764;51.036;5.852;2024-02-16T14:42:26;15.83;82.97
65995;HTU21D;52764;51.036;5.852;2024-02-16T14:44:54;15.80;82.91
65995;HTU21D;52764;51.036;5.852;2024-02-16T14:47:19;15.77;82.91
65995;HTU21D;52764;51.036;5.852;2024-02-16T14:49:47;15.80;83.07
65995;HTU21D;52764;51.036;5.852;2024-02-16T14:52:13;15.83;82.97
65995;HTU21D;52764;51.036;5.852;2024-02-16T14:54:38;15.82;82.83
65995;HTU21D;52764;51.036;5.852;2024-02-16T14:57:05;15.77;82.81
65995;HTU21D;52764;51.036;5.852;2024-02-16T14:59:31;15.69;82.74
65995;HTU21D;52764;51.036;5.852;2024-02-16T15:01:57;15.60;83.03
65995;HTU21D;52764;51.036;5.852;2024-02-16T15:04:24;15.56;83.05
65995;HTU21D;52764;51.036;5.852;2024-02-16T15:06:51;15.54;82.99
65995;HTU21D;52764;51.036;5.852;2024-02-16T15:09:16;15.48;83.08
65995;HTU21D;52764;51.036;5.852;2024-02-16T15:11:42;15.43;83.06
65995;HTU21D;52764;51.036;5.852;2024-02-16T15:14:08;15.47;82.71